sensor_id;sensor_type;location;lat;lon;timestamp;temperature;humidity
20376;DHT22;10347;51.828;6.466;2023-07-13T00:01:48;20.10;99.90
20376;DHT22;10347;51.828;6.466;2023-07-13T00:04:16;20.00;99.90
20376;DHT22;10347;51.828;6.466;2023-07-13T00:06:43;20.00;99.90
20376;DHT22;10347;51.828;6.466;2023-07-13T00:09:11;20.00;99.90
20376;DHT22;10347;51.828;6.466;2023-07-13T00:11:38;20.00;99.90
20376;DHT22;10347;51.828;6.466;2023-07-13T00:14:03;19.90;99.90
20376;DHT22;10347;51.828;6.466;2023-07-13T00:16:29;19.80;99.90
20376;DHT22;10347;51.828;6.466;2023-07-13T00:18:54;19.90;99.90
20376;DHT22;10347;51.828;6.466;2023-07-13T00:21:20;19.80;99.90
20376;DHT22;10347;51.828;6.466;2023-07-13T00:23:45;19.80;99.90
20376;DHT22;10347;51.828;6.466;2023-07-13T00:26:12;19.80;99.90
20376;DHT22;10347;51.828;6.466;2023-07-13T00:28:38;19.70;99.90
20376;DHT22;10347;51.828;6.466;2023-07-13T00:31:05;19.70;99.90
20376;DHT22;10347;51.828;6.466;2023-07-13T00:33:30;19.70;99.90
20376;DHT22;10347;51.828;6.466;2023-07-13T00:35:56;19.70;99.90
20376;DHT22;10347;51.828;6.466;2023-07-13T00:38:23;19.60;99.90
20376;DHT22;10347;51.828;6.466;2023-07-13T00:40:49;19.60;99.90
20376;DHT22;10347;51.828;6.466;2023-07-13T00:43:18;19.60;99.90
20376;DHT22;10347;51.828;6.466;2023-07-13T00:48:21;19.60;99.90
20376;DHT22;10347;51.828;6.466;2023-07-13T00:50:52;19.60;99.90
20376;DHT22;10347;51.828;6.466;2023-07-13T00:53:19;19.50;99.90
20376;DHT22;10347;51.828;6.466;2023-07-13T00:55:46;19.40;99.90
20376;DHT22;10347;51.828;6.466;2023-07-13T00:58:13;19.40;99.90
20376;DHT22;10347;51.828;6.466;2023-07-13T01:00:38;19.50;99.90
20376;DHT22;10347;51.828;6.466;2023-07-13T01:03:05;19.40;99.90
20376;DHT22;10347;51.828;6.466;2023-07-13T01:05:33;19.40;99.90
20376;DHT22;10347;51.828;6.466;2023-07-13T01:08:00;19.40;99.90
20376;DHT22;10347;51.828;6.466;2023-07-13T01:10:26;19.40;99.90
20376;DHT22;10347;51.828;6.466;2023-07-13T01:12:53;19.40;99.90
20376;DHT22;10347;51.828;6.466;2023-07-13T01:15:43;19.30;99.90
20376;DHT22;10347;51.828;6.466;2023-07-13T01:18:17;19.30;99.90
20376;DHT22;10347;51.828;6.466;2023-07-13T01:21:04;19.20;99.90
20376;DHT22;10347;51.828;6.466;2023-07-13T01:23:31;19.10;99.90
20376;DHT22;10347;51.828;6.466;2023-07-13T01:25:58;19.10;99.90
20376;DHT22;10347;51.828;6.466;2023-07-13T01:28:26;19.00;99.90
20376;DHT22;10347;51.828;6.466;2023-07-13T01:30:56;19.00;99.90
20376;DHT22;10347;51.828;6.466;2023-07-13T01:33:23;19.00;99.90
20376;DHT22;10347;51.828;6.466;2023-07-13T01:35:49;19.00;99.90
20376;DHT22;10347;51.828;6.466;2023-07-13T01:38:17;18.90;99.90
20376;DHT22;10347;51.828;6.466;2023-07-13T01:40:43;18.90;99.90
20376;DHT22;10347;51.828;6.466;2023-07-13T01:43:09;18.90;99.90
20376;DHT22;10347;51.828;6.466;2023-07-13T01:45:35;18.90;99.90
20376;DHT22;10347;51.828;6.466;2023-07-13T01:48:00;18.90;99.90
20376;DHT22;10347;51.828;6.466;2023-07-13T01:50:26;18.80;99.90
20376;DHT22;10347;51.828;6.466;2023-07-13T01:52:52;18.80;99.90
20376;DHT22;10347;51.828;6.466;2023-07-13T01:55:18;18.80;99.90
20376;DHT22;10347;51.828;6.466;2023-07-13T01:57:45;18.90;99.90
20376;DHT22;10347;51.828;6.466;2023-07-13T02:00:13;18.80;99.90
20376;DHT22;10347;51.828;6.466;2023-07-13T02:02:39;18.80;99.90
20376;DHT22;10347;51.828;6.466;2023-07-13T02:05:05;18.80;99.90
20376;DHT22;10347;51.828;6.466;2023-07-13T02:07:30;18.80;99.90
20376;DHT22;10347;51.828;6.466;2023-07-13T02:09:56;18.80;99.90
20376;DHT22;10347;51.828;6.466;2023-07-13T02:12:21;18.80;99.90
20376;DHT22;10347;51.828;6.466;2023-07-13T02:14:47;18.70;99.90
20376;DHT22;10347;51.828;6.466;2023-07-13T02:17:13;18.70;99.90
20376;DHT22;10347;51.828;6.466;2023-07-13T02:19:39;18.70;99.90
20376;DHT22;10347;51.828;6.466;2023-07-13T02:22:06;18.70;99.90
20376;DHT22;10347;51.828;6.466;2023-07-13T02:24:31;18.70;99.90
20376;DHT22;10347;51.828;6.466;2023-07-13T02:26:57;18.60;99.90
20376;DHT22;10347;51.828;6.466;2023-07-13T02:29:23;18.60;99.90
20376;DHT22;10347;51.828;6.466;2023-07-13T02:31:48;18.50;99.90
20376;DHT22;10347;51.828;6.466;2023-07-13T02:34:14;18.50;99.90
20376;DHT22;10347;51.828;6.466;2023-07-13T02:36:39;18.60;99.90
20376;DHT22;10347;51.828;6.466;2023-07-13T02:39:06;18.50;99.90
20376;DHT22;10347;51.828;6.466;2023-07-13T02:41:32;18.50;99.90
20376;DHT22;10347;51.828;6.466;2023-07-13T02:44:00;18.50;99.90
20376;DHT22;10347;51.828;6.466;2023-07-13T02:46:36;18.50;99.90
20376;DHT22;10347;51.828;6.466;2023-07-13T02:49:03;18.40;99.90
20376;DHT22;10347;51.828;6.466;2023-07-13T02:51:28;18.40;99.90
20376;DHT22;10347;51.828;6.466;2023-07-13T02:53:54;18.40;99.90
20376;DHT22;10347;51.828;6.466;2023-07-13T02:56:23;18.40;99.90
20376;DHT22;10347;51.828;6.466;2023-07-13T02:58:49;18.30;99.90
20376;DHT22;10347;51.828;6.466;2023-07-13T03:01:14;18.30;99.90
20376;DHT22;10347;51.828;6.466;2023-07-13T03:03:44;18.20;99.90
20376;DHT22;10347;51.828;6.466;2023-07-13T03:06:11;18.20;99.90
20376;DHT22;10347;51.828;6.466;2023-07-13T03:08:36;18.20;99.90
20376;DHT22;10347;51.828;6.466;2023-07-13T03:11:09;18.10;99.90
20376;DHT22;10347;51.828;6.466;2023-07-13T03:13:37;18.20;99.90
20376;DHT22;10347;51.828;6.466;2023-07-13T03:16:03;18.10;99.90
20376;DHT22;10347;51.828;6.466;2023-07-13T03:18:29;18.10;99.90
20376;DHT22;10347;51.828;6.466;2023-07-13T03:20:55;18.10;99.90
20376;DHT22;10347;51.828;6.466;2023-07-13T03:23:22;18.10;99.90
20376;DHT22;10347;51.828;6.466;2023-07-13T03:25:48;18.10;99.90
20376;DHT22;10347;51.828;6.466;2023-07-13T03:28:14;18.00;99.90
20376;DHT22;10347;51.828;6.466;2023-07-13T03:30:41;18.10;99.90
20376;DHT22;10347;51.828;6.466;2023-07-13T03:33:07;18.10;99.90
20376;DHT22;10347;51.828;6.466;2023-07-13T03:35:33;18.10;99.90
20376;DHT22;10347;51.828;6.466;2023-07-13T03:37:59;18.00;99.90
20376;DHT22;10347;51.828;6.466;2023-07-13T03:40:26;18.00;99.90
20376;DHT22;10347;51.828;6.466;2023-07-13T03:42:52;18.00;99.90
20376;DHT22;10347;51.828;6.466;2023-07-13T03:45:18;18.00;99.90
20376;DHT22;10347;51.828;6.466;2023-07-13T03:47:43;18.00;99.90
20376;DHT22;10347;51.828;6.466;2023-07-13T03:50:10;17.90;99.90
20376;DHT22;10347;51.828;6.466;2023-07-13T03:52:35;17.90;99.90
20376;DHT22;10347;51.828;6.466;2023-07-13T03:55:01;17.90;99.90
20376;DHT22;10347;51.828;6.466;2023-07-13T03:57:26;17.90;99.90
20376;DHT22;10347;51.828;6.466;2023-07-13T03:59:52;17.90;99.90
20376;DHT22;10347;51.828;6.466;2023-07-13T04:02:18;17.90;99.90
20376;DHT22;10347;51.828;6.466;2023-07-13T04:04:43;17.80;99.90
20376;DHT22;10347;51.828;6.466;2023-07-13T04:07:09;17.80;99.90
20376;DHT22;10347;51.828;6.466;2023-07-13T04:09:35;17.80;99.90
20376;DHT22;10347;51.828;6.466;2023-07-13T04:12:02;17.90;99.90
20376;DHT22;10347;51.828;6.466;2023-07-13T04:14:27;17.90;99.90
20376;DHT22;10347;51.828;6.466;2023-07-13T04:16:53;17.90;99.90
20376;DHT22;10347;51.828;6.466;2023-07-13T04:19:20;17.80;99.90
20376;DHT22;10347;51.828;6.466;2023-07-13T04:21:46;17.80;99.90
20376;DHT22;10347;51.828;6.466;2023-07-13T04:24:11;17.80;99.90
20376;DHT22;10347;51.828;6.466;2023-07-13T04:26:38;17.90;99.90
20376;DHT22;10347;51.828;6.466;2023-07-13T04:29:05;17.90;99.90
20376;DHT22;10347;51.828;6.466;2023-07-13T04:31:31;17.90;99.90
20376;DHT22;10347;51.828;6.466;2023-07-13T04:33:57;17.90;99.90
20376;DHT22;10347;51.828;6.466;2023-07-13T04:36:23;17.90;99.90
20376;DHT22;10347;51.828;6.466;2023-07-13T04:38:48;17.80;99.90
20376;DHT22;10347;51.828;6.466;2023-07-13T04:41:15;17.90;99.90
20376;DHT22;10347;51.828;6.466;2023-07-13T04:43:41;17.80;99.90
20376;DHT22;10347;51.828;6.466;2023-07-13T04:46:09;17.80;99.90
20376;DHT22;10347;51.828;6.466;2023-07-13T04:48:36;17.80;99.90
20376;DHT22;10347;51.828;6.466;2023-07-13T04:51:03;17.80;99.90
20376;DHT22;10347;51.828;6.466;2023-07-13T04:53:29;17.90;99.90
20376;DHT22;10347;51.828;6.466;2023-07-13T04:55:55;17.90;99.90
20376;DHT22;10347;51.828;6.466;2023-07-13T04:58:22;17.80;99.90
20376;DHT22;10347;51.828;6.466;2023-07-13T05:00:48;17.90;99.90
20376;DHT22;10347;51.828;6.466;2023-07-13T05:03:13;17.90;99.90
20376;DHT22;10347;51.828;6.466;2023-07-13T05:05:39;17.90;99.90
20376;DHT22;10347;51.828;6.466;2023-07-13T05:08:04;17.80;99.90
20376;DHT22;10347;51.828;6.466;2023-07-13T05:10:30;17.90;99.90
20376;DHT22;10347;51.828;6.466;2023-07-13T05:12:55;17.80;99.90
20376;DHT22;10347;51.828;6.466;2023-07-13T05:15:22;17.80;99.90
20376;DHT22;10347;51.828;6.466;2023-07-13T05:17:48;17.90;99.90
20376;DHT22;10347;51.828;6.466;2023-07-13T05:20:14;17.90;99.90
20376;DHT22;10347;51.828;6.466;2023-07-13T05:22:41;17.90;99.90
20376;DHT22;10347;51.828;6.466;2023-07-13T05:25:07;17.90;99.90
20376;DHT22;10347;51.828;6.466;2023-07-13T05:27:34;17.90;99.90
20376;DHT22;10347;51.828;6.466;2023-07-13T05:30:00;17.90;99.90
20376;DHT22;10347;51.828;6.466;2023-07-13T05:32:25;18.00;99.90
20376;DHT22;10347;51.828;6.466;2023-07-13T05:34:51;18.00;99.90
20376;DHT22;10347;51.828;6.466;2023-07-13T05:37:16;17.90;99.90
20376;DHT22;10347;51.828;6.466;2023-07-13T05:39:42;18.00;99.90
20376;DHT22;10347;51.828;6.466;2023-07-13T05:42:08;18.00;99.90
20376;DHT22;10347;51.828;6.466;2023-07-13T05:44:33;18.00;99.90
20376;DHT22;10347;51.828;6.466;2023-07-13T05:46:59;18.00;99.90
20376;DHT22;10347;51.828;6.466;2023-07-13T05:49:24;18.00;99.90
20376;DHT22;10347;51.828;6.466;2023-07-13T05:51:50;18.10;99.90
20376;DHT22;10347;51.828;6.466;2023-07-13T05:54:15;18.10;99.90
20376;DHT22;10347;51.828;6.466;2023-07-13T05:56:41;18.10;99.90
20376;DHT22;10347;51.828;6.466;2023-07-13T05:59:06;18.10;99.90
20376;DHT22;10347;51.828;6.466;2023-07-13T06:01:32;18.10;99.90
20376;DHT22;10347;51.828;6.466;2023-07-13T06:03:57;18.10;99.90
20376;DHT22;10347;51.828;6.466;2023-07-13T06:06:23;18.00;99.90
20376;DHT22;10347;51.828;6.466;2023-07-13T06:08:49;18.00;99.90
20376;DHT22;10347;51.828;6.466;2023-07-13T06:11:23;18.00;99.90
20376;DHT22;10347;51.828;6.466;2023-07-13T06:13:50;18.10;99.90
20376;DHT22;10347;51.828;6.466;2023-07-13T06:16:16;18.10;99.90
20376;DHT22;10347;51.828;6.466;2023-07-13T06:18:41;18.10;99.90
20376;DHT22;10347;51.828;6.466;2023-07-13T06:21:15;18.20;99.90
20376;DHT22;10347;51.828;6.466;2023-07-13T06:23:42;18.20;99.90
20376;DHT22;10347;51.828;6.466;2023-07-13T06:26:08;18.20;99.90
20376;DHT22;10347;51.828;6.466;2023-07-13T06:28:35;18.20;99.90
20376;DHT22;10347;51.828;6.466;2023-07-13T06:31:01;18.20;99.90
20376;DHT22;10347;51.828;6.466;2023-07-13T06:33:27;18.20;99.90
20376;DHT22;10347;51.828;6.466;2023-07-13T06:35:53;18.20;99.90
20376;DHT22;10347;51.828;6.466;2023-07-13T06:38:20;18.30;99.90
20376;DHT22;10347;51.828;6.466;2023-07-13T06:40:46;18.30;99.90
20376;DHT22;10347;51.828;6.466;2023-07-13T06:43:12;18.30;99.90
20376;DHT22;10347;51.828;6.466;2023-07-13T06:45:43;18.30;99.90
20376;DHT22;10347;51.828;6.466;2023-07-13T06:48:11;18.40;99.90
20376;DHT22;10347;51.828;6.466;2023-07-13T06:50:37;18.40;99.90
20376;DHT22;10347;51.828;6.466;2023-07-13T06:53:02;18.40;99.90
20376;DHT22;10347;51.828;6.466;2023-07-13T06:55:28;18.30;99.90
20376;DHT22;10347;51.828;6.466;2023-07-13T06:57:53;18.40;99.90
20376;DHT22;10347;51.828;6.466;2023-07-13T07:00:19;18.40;99.90
20376;DHT22;10347;51.828;6.466;2023-07-13T07:02:45;18.50;99.90
20376;DHT22;10347;51.828;6.466;2023-07-13T07:05:10;18.50;99.90
20376;DHT22;10347;51.828;6.466;2023-07-13T07:07:36;18.50;99.90
20376;DHT22;10347;51.828;6.466;2023-07-13T07:10:02;18.50;99.90
20376;DHT22;10347;51.828;6.466;2023-07-13T07:12:28;18.50;99.90
20376;DHT22;10347;51.828;6.466;2023-07-13T07:14:54;18.50;99.90
20376;DHT22;10347;51.828;6.466;2023-07-13T07:17:19;18.50;99.90
20376;DHT22;10347;51.828;6.466;2023-07-13T07:19:45;18.50;99.90
20376;DHT22;10347;51.828;6.466;2023-07-13T07:22:13;18.50;99.90
20376;DHT22;10347;51.828;6.466;2023-07-13T07:24:38;18.50;99.90
20376;DHT22;10347;51.828;6.466;2023-07-13T07:27:04;18.60;99.90
20376;DHT22;10347;51.828;6.466;2023-07-13T07:29:30;18.60;99.90
20376;DHT22;10347;51.828;6.466;2023-07-13T07:31:55;18.60;99.90
20376;DHT22;10347;51.828;6.466;2023-07-13T07:34:21;18.60;99.90
20376;DHT22;10347;51.828;6.466;2023-07-13T07:36:46;18.70;99.90
20376;DHT22;10347;51.828;6.466;2023-07-13T07:39:12;18.70;99.90
20376;DHT22;10347;51.828;6.466;2023-07-13T07:41:37;18.60;99.90
20376;DHT22;10347;51.828;6.466;2023-07-13T07:44:03;18.70;99.90
20376;DHT22;10347;51.828;6.466;2023-07-13T07:46:29;18.70;99.90
20376;DHT22;10347;51.828;6.466;2023-07-13T07:48:55;18.70;99.90
20376;DHT22;10347;51.828;6.466;2023-07-13T07:51:21;18.70;99.90
20376;DHT22;10347;51.828;6.466;2023-07-13T07:53:47;18.80;99.90
20376;DHT22;10347;51.828;6.466;2023-07-13T07:56:13;18.80;99.90
20376;DHT22;10347;51.828;6.466;2023-07-13T07:58:39;18.80;99.90
20376;DHT22;10347;51.828;6.466;2023-07-13T08:01:05;18.80;99.90
20376;DHT22;10347;51.828;6.466;2023-07-13T08:03:31;18.90;99.90
20376;DHT22;10347;51.828;6.466;2023-07-13T08:05:56;18.80;99.90
20376;DHT22;10347;51.828;6.466;2023-07-13T08:08:22;18.80;99.90
20376;DHT22;10347;51.828;6.466;2023-07-13T08:10:48;18.90;99.90
20376;DHT22;10347;51.828;6.466;2023-07-13T08:13:13;18.90;99.90
20376;DHT22;10347;51.828;6.466;2023-07-13T08:15:39;18.90;99.90
20376;DHT22;10347;51.828;6.466;2023-07-13T08:18:05;19.00;99.90
20376;DHT22;10347;51.828;6.466;2023-07-13T08:20:31;19.00;99.90
20376;DHT22;10347;51.828;6.466;2023-07-13T08:22:57;19.00;99.90
20376;DHT22;10347;51.828;6.466;2023-07-13T08:25:22;19.00;99.90
20376;DHT22;10347;51.828;6.466;2023-07-13T08:27:48;19.00;99.90
20376;DHT22;10347;51.828;6.466;2023-07-13T08:30:13;19.10;99.90
20376;DHT22;10347;51.828;6.466;2023-07-13T08:32:39;19.10;99.90
20376;DHT22;10347;51.828;6.466;2023-07-13T08:35:05;19.10;99.90
20376;DHT22;10347;51.828;6.466;2023-07-13T08:37:31;19.10;99.90
20376;DHT22;10347;51.828;6.466;2023-07-13T08:39:56;19.10;99.90
20376;DHT22;10347;51.828;6.466;2023-07-13T08:42:39;19.10;99.90
20376;DHT22;10347;51.828;6.466;2023-07-13T08:45:17;19.20;99.90
20376;DHT22;10347;51.828;6.466;2023-07-13T08:47:53;19.20;99.90
20376;DHT22;10347;51.828;6.466;2023-07-13T08:50:23;19.20;99.90
20376;DHT22;10347;51.828;6.466;2023-07-13T08:52:49;19.20;99.90
20376;DHT22;10347;51.828;6.466;2023-07-13T08:55:22;19.30;99.90
20376;DHT22;10347;51.828;6.466;2023-07-13T08:57:54;19.30;99.90
20376;DHT22;10347;51.828;6.466;2023-07-13T09:00:23;19.30;99.90
20376;DHT22;10347;51.828;6.466;2023-07-13T09:02:56;19.40;99.90
20376;DHT22;10347;51.828;6.466;2023-07-13T09:05:29;19.50;99.90
20376;DHT22;10347;51.828;6.466;2023-07-13T09:10:45;19.60;99.90
20376;DHT22;10347;51.828;6.466;2023-07-13T09:15:52;19.70;99.90
20376;DHT22;10347;51.828;6.466;2023-07-13T09:18:47;19.80;99.90
20376;DHT22;10347;51.828;6.466;2023-07-13T09:21:18;19.90;99.90
20376;DHT22;10347;51.828;6.466;2023-07-13T09:23:47;19.90;99.90
20376;DHT22;10347;51.828;6.466;2023-07-13T09:26:20;20.00;99.90
20376;DHT22;10347;51.828;6.466;2023-07-13T09:29:20;20.10;99.90
20376;DHT22;10347;51.828;6.466;2023-07-13T09:31:52;20.20;99.90
20376;DHT22;10347;51.828;6.466;2023-07-13T09:34:19;20.20;99.90
20376;DHT22;10347;51.828;6.466;2023-07-13T09:36:44;20.30;99.90
20376;DHT22;10347;51.828;6.466;2023-07-13T09:39:29;20.40;99.90
20376;DHT22;10347;51.828;6.466;2023-07-13T09:42:03;20.50;99.90
20376;DHT22;10347;51.828;6.466;2023-07-13T09:44:43;20.60;99.90
20376;DHT22;10347;51.828;6.466;2023-07-13T09:47:27;20.60;99.90
20376;DHT22;10347;51.828;6.466;2023-07-13T09:52:24;20.80;99.90
20376;DHT22;10347;51.828;6.466;2023-07-13T09:54:53;20.90;99.90
20376;DHT22;10347;51.828;6.466;2023-07-13T09:57:26;21.00;99.90
20376;DHT22;10347;51.828;6.466;2023-07-13T09:59:53;21.00;99.90
20376;DHT22;10347;51.828;6.466;2023-07-13T10:02:33;21.10;99.90
20376;DHT22;10347;51.828;6.466;2023-07-13T10:05:00;21.10;99.90
20376;DHT22;10347;51.828;6.466;2023-07-13T10:07:26;21.20;99.90
20376;DHT22;10347;51.828;6.466;2023-07-13T10:09:53;21.20;99.90
20376;DHT22;10347;51.828;6.466;2023-07-13T10:12:20;21.20;99.90
20376;DHT22;10347;51.828;6.466;2023-07-13T10:14:46;21.20;99.90
20376;DHT22;10347;51.828;6.466;2023-07-13T10:17:14;21.40;99.90
20376;DHT22;10347;51.828;6.466;2023-07-13T10:19:41;21.40;99.90
20376;DHT22;10347;51.828;6.466;2023-07-13T10:24:38;21.60;99.90
20376;DHT22;10347;51.828;6.466;2023-07-13T10:29:39;21.70;99.90
20376;DHT22;10347;51.828;6.466;2023-07-13T10:32:12;21.80;99.90
20376;DHT22;10347;51.828;6.466;2023-07-13T10:34:39;21.90;99.90
20376;DHT22;10347;51.828;6.466;2023-07-13T10:37:07;21.90;99.90
20376;DHT22;10347;51.828;6.466;2023-07-13T10:39:37;21.90;99.90
20376;DHT22;10347;51.828;6.466;2023-07-13T10:42:06;22.00;99.90
20376;DHT22;10347;51.828;6.466;2023-07-13T10:44:34;22.00;99.90
20376;DHT22;10347;51.828;6.466;2023-07-13T10:47:04;21.90;99.90
20376;DHT22;10347;51.828;6.466;2023-07-13T10:49:32;21.90;99.90
20376;DHT22;10347;51.828;6.466;2023-07-13T10:51:58;21.90;99.90
20376;DHT22;10347;51.828;6.466;2023-07-13T10:54:33;22.00;99.90
20376;DHT22;10347;51.828;6.466;2023-07-13T10:57:19;21.90;99.90
20376;DHT22;10347;51.828;6.466;2023-07-13T11:00:14;22.00;99.90
20376;DHT22;10347;51.828;6.466;2023-07-13T11:02:40;21.90;99.90
20376;DHT22;10347;51.828;6.466;2023-07-13T11:08:02;21.90;99.90
20376;DHT22;10347;51.828;6.466;2023-07-13T11:10:54;21.80;99.90
20376;DHT22;10347;51.828;6.466;2023-07-13T11:13:37;21.70;99.90
20376;DHT22;10347;51.828;6.466;2023-07-13T11:21:20;21.60;99.90
20376;DHT22;10347;51.828;6.466;2023-07-13T11:24:16;21.70;99.90
20376;DHT22;10347;51.828;6.466;2023-07-13T11:26:51;21.60;99.90
20376;DHT22;10347;51.828;6.466;2023-07-13T11:29:32;21.60;99.90
20376;DHT22;10347;51.828;6.466;2023-07-13T11:32:00;21.50;99.90
20376;DHT22;10347;51.828;6.466;2023-07-13T11:34:38;21.40;99.90
20376;DHT22;10347;51.828;6.466;2023-07-13T11:37:12;21.30;99.90
20376;DHT22;10347;51.828;6.466;2023-07-13T11:39:42;21.10;99.90
20376;DHT22;10347;51.828;6.466;2023-07-13T11:42:12;21.00;99.90
20376;DHT22;10347;51.828;6.466;2023-07-13T11:44:43;20.80;99.90
20376;DHT22;10347;51.828;6.466;2023-07-13T11:47:22;20.70;99.90
20376;DHT22;10347;51.828;6.466;2023-07-13T11:49:53;20.70;99.90
20376;DHT22;10347;51.828;6.466;2023-07-13T11:52:34;20.80;99.90
20376;DHT22;10347;51.828;6.466;2023-07-13T11:55:03;20.70;99.90
20376;DHT22;10347;51.828;6.466;2023-07-13T11:57:32;20.60;99.90
20376;DHT22;10347;51.828;6.466;2023-07-13T12:00:11;20.60;99.90
20376;DHT22;10347;51.828;6.466;2023-07-13T12:02:40;20.50;99.90
20376;DHT22;10347;51.828;6.466;2023-07-13T12:05:11;20.50;99.90
20376;DHT22;10347;51.828;6.466;2023-07-13T12:07:38;20.50;99.90
20376;DHT22;10347;51.828;6.466;2023-07-13T12:12:52;20.50;99.90
20376;DHT22;10347;51.828;6.466;2023-07-13T12:15:20;20.40;99.90
20376;DHT22;10347;51.828;6.466;2023-07-13T12:17:47;20.30;99.90
20376;DHT22;10347;51.828;6.466;2023-07-13T12:20:21;20.30;99.90
20376;DHT22;10347;51.828;6.466;2023-07-13T12:22:48;20.30;99.90
20376;DHT22;10347;51.828;6.466;2023-07-13T12:25:15;20.20;99.90
20376;DHT22;10347;51.828;6.466;2023-07-13T12:27:41;20.10;99.90
20376;DHT22;10347;51.828;6.466;2023-07-13T12:30:28;20.20;99.90
20376;DHT22;10347;51.828;6.466;2023-07-13T12:33:05;20.20;99.90
20376;DHT22;10347;51.828;6.466;2023-07-13T12:35:40;20.30;99.90
20376;DHT22;10347;51.828;6.466;2023-07-13T12:38:11;20.20;99.90
20376;DHT22;10347;51.828;6.466;2023-07-13T12:40:37;20.30;99.90
20376;DHT22;10347;51.828;6.466;2023-07-13T12:43:03;20.30;99.90
20376;DHT22;10347;51.828;6.466;2023-07-13T12:45:32;20.40;99.90
20376;DHT22;10347;51.828;6.466;2023-07-13T12:48:04;20.40;99.90
20376;DHT22;10347;51.828;6.466;2023-07-13T12:50:37;20.30;99.90
20376;DHT22;10347;51.828;6.466;2023-07-13T12:53:05;20.40;99.90
20376;DHT22;10347;51.828;6.466;2023-07-13T12:55:47;20.40;99.90
20376;DHT22;10347;51.828;6.466;2023-07-13T12:58:32;20.40;99.90
20376;DHT22;10347;51.828;6.466;2023-07-13T13:00:59;20.50;99.90
20376;DHT22;10347;51.828;6.466;2023-07-13T13:06:29;20.40;99.90
20376;DHT22;10347;51.828;6.466;2023-07-13T13:08:57;20.40;99.90
20376;DHT22;10347;51.828;6.466;2023-07-13T13:11:28;20.50;99.90
20376;DHT22;10347;51.828;6.466;2023-07-13T13:13:54;20.60;99.90
20376;DHT22;10347;51.828;6.466;2023-07-13T13:16:43;20.60;99.90
20376;DHT22;10347;51.828;6.466;2023-07-13T13:19:22;20.70;99.90
20376;DHT22;10347;51.828;6.466;2023-07-13T13:21:49;20.60;99.90
20376;DHT22;10347;51.828;6.466;2023-07-13T13:24:20;20.70;99.90
20376;DHT22;10347;51.828;6.466;2023-07-13T13:26:47;20.70;99.90
20376;DHT22;10347;51.828;6.466;2023-07-13T13:29:22;20.80;99.90
20376;DHT22;10347;51.828;6.466;2023-07-13T13:31:50;20.90;99.90
20376;DHT22;10347;51.828;6.466;2023-07-13T13:34:17;21.00;99.90
20376;DHT22;10347;51.828;6.466;2023-07-13T13:36:45;21.00;99.90
20376;DHT22;10347;51.828;6.466;2023-07-13T13:41:48;21.10;99.90
20376;DHT22;10347;51.828;6.466;2023-07-13T13:44:16;21.20;99.90
20376;DHT22;10347;51.828;6.466;2023-07-13T13:46:43;21.30;99.90
20376;DHT22;10347;51.828;6.466;2023-07-13T13:49:18;21.40;99.90
20376;DHT22;10347;51.828;6.466;2023-07-13T13:51:45;21.50;99.90
20376;DHT22;10347;51.828;6.466;2023-07-13T13:54:12;21.50;99.90
20376;DHT22;10347;51.828;6.466;2023-07-13T13:56:38;21.60;99.90
20376;DHT22;10347;51.828;6.466;2023-07-13T13:59:04;21.70;99.90
20376;DHT22;10347;51.828;6.466;2023-07-13T14:01:31;21.70;99.90
20376;DHT22;10347;51.828;6.466;2023-07-13T14:03:56;21.80;99.90
20376;DHT22;10347;51.828;6.466;2023-07-13T14:06:22;21.80;99.90
20376;DHT22;10347;51.828;6.466;2023-07-13T14:08:48;21.90;99.90
20376;DHT22;10347;51.828;6.466;2023-07-13T14:11:17;21.90;99.90
20376;DHT22;10347;51.828;6.466;2023-07-13T14:13:47;22.00;99.90
20376;DHT22;10347;51.828;6.466;2023-07-13T14:16:19;22.10;99.90
20376;DHT22;10347;51.828;6.466;2023-07-13T14:18:46;22.10;99.90
20376;DHT22;10347;51.828;6.466;2023-07-13T14:21:17;22.20;99.90
20376;DHT22;10347;51.828;6.466;2023-07-13T14:23:44;22.30;99.90
20376;DHT22;10347;51.828;6.466;2023-07-13T14:26:13;22.40;99.90
20376;DHT22;10347;51.828;6.466;2023-07-13T14:28:43;22.50;99.90
20376;DHT22;10347;51.828;6.466;2023-07-13T14:31:13;22.60;99.90
20376;DHT22;10347;51.828;6.466;2023-07-13T14:33:38;22.60;99.90
20376;DHT22;10347;51.828;6.466;2023-07-13T14:36:40;22.60;99.90
20376;DHT22;10347;51.828;6.466;2023-07-13T14:39:16;22.60;99.90
20376;DHT22;10347;51.828;6.466;2023-07-13T14:41:43;22.60;99.90
20376;DHT22;10347;51.828;6.466;2023-07-13T14:44:21;22.70;99.90
20376;DHT22;10347;51.828;6.466;2023-07-13T14:46:48;22.80;99.90
20376;DHT22;10347;51.828;6.466;2023-07-13T14:49:30;22.80;99.90
20376;DHT22;10347;51.828;6.466;2023-07-13T14:51:58;22.80;99.90
20376;DHT22;10347;51.828;6.466;2023-07-13T14:54:27;22.70;99.90
20376;DHT22;10347;51.828;6.466;2023-07-13T14:56:52;22.70;99.90
20376;DHT22;10347;51.828;6.466;2023-07-13T14:59:18;22.80;99.90
20376;DHT22;10347;51.828;6.466;2023-07-13T15:01:47;22.70;99.90
20376;DHT22;10347;51.828;6.466;2023-07-13T15:04:13;22.70;99.90
20376;DHT22;10347;51.828;6.466;2023-07-13T15:07:00;22.60;99.90
20376;DHT22;10347;51.828;6.466;2023-07-13T15:09:28;22.50;99.90
20376;DHT22;10347;51.828;6.466;2023-07-13T15:11:58;22.50;99.90
20376;DHT22;10347;51.828;6.466;2023-07-13T15:14:24;22.40;99.90
20376;DHT22;10347;51.828;6.466;2023-07-13T15:16:53;22.40;99.90
20376;DHT22;10347;51.828;6.466;2023-07-13T15:19:19;22.30;99.90
20376;DHT22;10347;51.828;6.466;2023-07-13T15:21:46;22.20;99.90
20376;DHT22;10347;51.828;6.466;2023-07-13T15:24:12;22.10;99.90
20376;DHT22;10347;51.828;6.466;2023-07-13T15:26:38;22.10;99.90
20376;DHT22;10347;51.828;6.466;2023-07-13T15:29:04;22.00;99.90
20376;DHT22;10347;51.828;6.466;2023-07-13T15:31:32;21.90;99.90
20376;DHT22;10347;51.828;6.466;2023-07-13T15:33:59;21.90;99.90
20376;DHT22;10347;51.828;6.466;2023-07-13T15:36:25;21.90;99.90
20376;DHT22;10347;51.828;6.466;2023-07-13T15:38:53;21.90;99.90
20376;DHT22;10347;51.828;6.466;2023-07-13T15:41:24;22.00;99.90
20376;DHT22;10347;51.828;6.466;2023-07-13T15:43:53;21.90;99.90
20376;DHT22;10347;51.828;6.466;2023-07-13T15:46:20;21.90;99.90
20376;DHT22;10347;51.828;6.466;2023-07-13T15:48:49;21.90;99.90
20376;DHT22;10347;51.828;6.466;2023-07-13T15:51:21;22.00;99.90
20376;DHT22;10347;51.828;6.466;2023-07-13T15:53:48;22.00;99.90
20376;DHT22;10347;51.828;6.466;2023-07-13T15:56:23;22.00;99.90
20376;DHT22;10347;51.828;6.466;2023-07-13T15:58:50;22.10;99.90
20376;DHT22;10347;51.828;6.466;2023-07-13T16:01:17;22.00;99.90
20376;DHT22;10347;51.828;6.466;2023-07-13T16:03:43;22.10;99.90
20376;DHT22;10347;51.828;6.466;2023-07-13T16:06:27;22.10;99.90
20376;DHT22;10347;51.828;6.466;2023-07-13T16:08:53;22.10;99.90
20376;DHT22;10347;51.828;6.466;2023-07-13T16:11:23;22.10;99.90